Time;durP1;ratioP1;P1;durP2;ratioP2;P2;SDS_P1;SDS_P2;PMS_P1;PMS_P2;Temp;Humidity;BMP_temperature;BMP_pressure;BME280_temperature;BME280_humidity;BME280_pressure;Samples;Min_cycle;Max_cycle;Signal;HPM_P1;HPM_P2
2022/09/24 00:01:17;;;;;;;11.60;7.23;;;9.20;99.90;;;;;;5026704;28;20032;-80
2022/09/24 00:03:44;;;;;;;11.57;7.53;;;9.20;99.90;;;;;;5026326;28;20152;-80
2022/09/24 00:06:13;;;;;;;12.07;7.37;;;9.20;99.90;;;;;;5026617;28;20041;-80
2022/09/24 00:08:39;;;;;;;10.07;6.93;;;9.20;99.90;;;;;;5027317;28;20033;-80
2022/09/24 00:11:06;;;;;;;10.60;7.23;;;9.20;99.90;;;;;;5026576;28;20037;-80
2022/09/24 00:13:33;;;;;;;10.30;7.53;;;9.20;99.90;;;;;;5027293;28;20053;-80
2022/09/24 00:16:05;;;;;;;9.13;7.70;;;9.20;99.90;;;;;;5026882;28;20113;-80
2022/09/24 00:18:30;;;;;;;10.63;7.77;;;9.20;99.90;;;;;;5028085;28;20060;-80
2022/09/24 00:20:56;;;;;;;11.80;7.57;;;9.20;99.90;;;;;;5031016;28;20096;-80
2022/09/24 00:23:22;;;;;;;10.10;7.30;;;9.20;99.90;;;;;;5030493;28;20421;-80
2022/09/24 00:28:32;;;;;;;11.23;7.53;;;9.30;99.90;;;;;;5030974;28;20103;-77
2022/09/24 00:31:02;;;;;;;10.40;7.67;;;9.20;99.90;;;;;;5032815;28;20458;-77
2022/09/24 00:33:28;;;;;;;12.53;7.20;;;9.30;99.90;;;;;;5032565;28;20076;-77
2022/09/24 00:36:03;;;;;;;10.60;7.10;;;9.30;99.90;;;;;;5032629;28;20061;-77
2022/09/24 00:38:30;;;;;;;9.50;6.90;;;9.30;99.90;;;;;;5032124;28;20040;-77
2022/09/24 00:40:55;;;;;;;10.33;7.13;;;9.30;99.90;;;;;;5032188;28;20033;-77
2022/09/24 00:43:35;;;;;;;8.80;6.10;;;9.30;99.90;;;;;;5032018;28;20034;-77
2022/09/24 00:46:15;;;;;;;11.57;6.97;;;9.30;99.90;;;;;;5031933;28;20053;-77
2022/09/24 00:48:42;;;;;;;11.53;7.93;;;9.30;99.90;;;;;;5031822;28;20027;-77
2022/09/24 00:51:11;;;;;;;11.27;7.20;;;9.30;99.90;;;;;;5031896;28;20450;-77
2022/09/24 00:53:37;;;;;;;10.20;7.60;;;9.20;99.90;;;;;;5032420;28;20480;-77
2022/09/24 00:56:04;;;;;;;9.60;7.83;;;9.20;99.90;;;;;;5032429;28;20057;-77
2022/09/24 00:58:30;;;;;;;9.47;7.37;;;9.20;99.90;;;;;;5031862;28;20033;-77
2022/09/24 01:01:04;;;;;;;10.40;7.53;;;9.20;99.90;;;;;;5031610;28;20042;-77
2022/09/24 01:03:32;;;;;;;12.20;7.20;;;9.20;99.90;;;;;;5032099;28;20040;-77
2022/09/24 01:05:58;;;;;;;11.50;7.17;;;9.20;99.90;;;;;;5031425;28;20029;-78
2022/09/24 01:08:24;;;;;;;9.47;7.17;;;9.10;99.90;;;;;;5031346;28;20410;-77
2022/09/24 01:11:04;;;;;;;14.37;7.50;;;9.20;99.90;;;;;;5031430;28;20116;-77
2022/09/24 01:13:48;;;;;;;10.20;7.63;;;9.20;99.90;;;;;;5032179;28;20041;-77
2022/09/24 01:16:20;;;;;;;13.10;7.33;;;9.10;99.90;;;;;;5031563;28;20033;-77
2022/09/24 01:18:56;;;;;;;10.50;7.63;;;9.20;99.90;;;;;;5031348;28;20120;-77
2022/09/24 01:21:34;;;;;;;10.73;7.47;;;9.10;99.90;;;;;;5030929;28;20587;-77
2022/09/24 01:24:39;;;;;;;9.77;6.67;;;9.10;99.90;;;;;;5031080;28;20076;-77
2022/09/24 01:27:18;;;;;;;9.70;7.07;;;9.10;99.90;;;;;;5032029;28;20076;-77
2022/09/24 01:30:04;;;;;;;11.33;7.40;;;9.20;99.90;;;;;;5030026;28;20036;-82
2022/09/24 01:32:37;;;;;;;12.87;7.13;;;9.10;99.90;;;;;;5029300;28;20073;-82
2022/09/24 01:35:12;;;;;;;8.60;6.90;;;9.10;99.90;;;;;;5029549;28;20095;-82
2022/09/24 01:37:40;;;;;;;8.43;6.90;;;9.10;99.90;;;;;;5029726;28;20068;-82
2022/09/24 01:40:08;;;;;;;8.57;7.00;;;9.10;99.90;;;;;;5030118;28;20033;-82
2022/09/24 01:42:36;;;;;;;10.07;7.67;;;9.00;99.90;;;;;;5029560;28;20040;-82
2022/09/24 01:45:02;;;;;;;10.00;7.33;;;9.00;99.90;;;;;;5029203;28;20029;-82
2022/09/24 01:47:37;;;;;;;9.60;6.83;;;9.00;99.90;;;;;;5029711;28;20513;-82
2022/09/24 01:50:03;;;;;;;11.10;7.30;;;9.00;99.90;;;;;;5029611;28;20022;-82
2022/09/24 01:52:58;;;;;;;10.83;7.40;;;9.00;99.90;;;;;;5029220;28;20025;-82
2022/09/24 01:55:29;;;;;;;9.57;7.85;;;9.00;99.90;;;;;;5028371;28;20049;-82
2022/09/24 01:58:07;;;;;;;8.93;7.17;;;9.00;99.90;;;;;;5029331;28;20094;-82
2022/09/24 02:00:36;;;;;;;8.63;7.07;;;9.00;99.90;;;;;;5029109;28;20033;-82
2022/09/24 02:03:30;;;;;;;9.70;7.00;;;9.00;99.90;;;;;;5028480;28;20533;-82
2022/09/24 02:06:13;;;;;;;9.07;7.20;;;9.00;99.90;;;;;;5029742;28;20465;-81
2022/09/24 02:08:44;;;;;;;9.90;6.90;;;9.00;99.90;;;;;;5030482;28;20029;-82
2022/09/24 02:11:15;;;;;;;9.23;6.67;;;9.00;99.90;;;;;;5030714;28;20022;-81
2022/09/24 02:13:45;;;;;;;8.73;6.67;;;9.00;99.90;;;;;;5030440;28;20030;-81
2022/09/24 02:16:14;;;;;;;9.03;6.93;;;9.00;99.90;;;;;;5029931;28;20026;-82
2022/09/24 02:18:43;;;;;;;11.07;6.70;;;9.00;99.90;;;;;;5030078;28;20047;-82
2022/09/24 02:21:12;;;;;;;15.37;6.57;;;8.90;99.90;;;;;;5030075;28;20040;-81
2022/09/24 02:23:45;;;;;;;7.57;6.50;;;9.00;99.90;;;;;;5029741;28;20037;-81
2022/09/24 02:26:11;;;;;;;9.47;7.10;;;8.90;99.90;;;;;;5029426;28;20025;-82
2022/09/24 02:28:37;;;;;;;10.93;7.20;;;8.90;99.90;;;;;;5027992;28;20540;-82
2022/09/24 02:31:20;;;;;;;8.37;6.90;;;8.90;99.90;;;;;;5027759;28;20430;-82
2022/09/24 02:36:33;;;;;;;8.07;6.30;;;8.90;99.90;;;;;;5028334;28;20048;-82
2022/09/24 02:38:59;;;;;;;8.00;6.47;;;8.80;99.90;;;;;;5027822;28;20030;-82
2022/09/24 02:41:26;;;;;;;10.67;6.73;;;8.90;99.90;;;;;;5027165;28;20087;-82
2022/09/24 02:43:52;;;;;;;9.50;6.93;;;8.90;99.90;;;;;;5027906;28;20033;-82
2022/09/24 02:46:18;;;;;;;8.43;6.80;;;8.90;99.90;;;;;;5027906;28;20036;-82
2022/09/24 02:48:44;;;;;;;10.83;7.40;;;8.80;99.90;;;;;;5027200;28;20033;-82
2022/09/24 02:51:09;;;;;;;9.63;6.57;;;8.80;99.90;;;;;;5027706;28;20459;-82
2022/09/24 02:53:35;;;;;;;8.60;7.07;;;8.90;99.90;;;;;;5027936;28;20029;-82
2022/09/24 02:56:01;;;;;;;8.17;6.43;;;8.90;99.90;;;;;;5026871;28;20114;-81
2022/09/24 02:58:28;;;;;;;10.47;6.70;;;8.80;99.90;;;;;;5027352;28;20049;-82
2022/09/24 03:00:55;;;;;;;9.27;7.27;;;8.90;99.90;;;;;;5027427;28;20477;-81
2022/09/24 03:03:21;;;;;;;10.90;7.13;;;8.90;99.90;;;;;;5027313;28;20088;-82
2022/09/24 03:05:47;;;;;;;9.87;6.93;;;8.90;99.90;;;;;;5027610;28;20367;-81
2022/09/24 03:08:13;;;;;;;10.80;7.53;;;9.00;99.90;;;;;;5028275;28;20049;-82
2022/09/24 03:10:39;;;;;;;8.67;6.57;;;9.00;99.90;;;;;;5027691;28;20422;-82
2022/09/24 03:13:04;;;;;;;10.60;6.83;;;9.00;99.90;;;;;;5026710;28;20112;-82
2022/09/24 03:15:30;;;;;;;8.23;6.03;;;9.00;99.90;;;;;;5027552;28;20560;-82
2022/09/24 03:17:55;;;;;;;10.33;6.77;;;9.00;99.90;;;;;;5028031;28;20546;-82
2022/09/24 03:20:21;;;;;;;8.80;7.07;;;9.10;99.90;;;;;;5026924;28;20079;-82
2022/09/24 03:22:50;;;;;;;8.50;6.67;;;9.10;99.90;;;;;;5026995;28;20029;-82
2022/09/24 03:25:17;;;;;;;8.67;6.93;;;9.10;99.90;;;;;;5025852;28;20030;-81
2022/09/24 03:27:42;;;;;;;9.67;6.63;;;9.10;99.90;;;;;;5026951;28;20049;-82
2022/09/24 03:32:53;;;;;;;8.23;6.00;;;9.20;99.90;;;;;;5027146;28;20038;-82
2022/09/24 03:35:19;;;;;;;8.93;6.10;;;9.20;99.90;;;;;;5027029;28;20042;-82
2022/09/24 03:37:45;;;;;;;8.60;6.07;;;9.20;99.90;;;;;;5027254;28;20041;-82
2022/09/24 03:40:11;;;;;;;8.17;5.30;;;9.30;99.90;;;;;;5027002;28;20394;-82
2022/09/24 03:42:36;;;;;;;6.93;5.47;;;9.30;99.90;;;;;;5026857;28;20092;-82
2022/09/24 03:45:03;;;;;;;6.83;5.50;;;9.30;99.90;;;;;;5026847;28;20029;-82
2022/09/24 03:47:30;;;;;;;9.43;6.60;;;9.30;99.90;;;;;;5026692;28;20026;-82
2022/09/24 03:49:56;;;;;;;7.47;5.97;;;9.30;99.90;;;;;;5026585;28;20109;-82
2022/09/24 03:52:21;;;;;;;9.80;5.97;;;9.30;99.90;;;;;;5027028;28;20100;-82
2022/09/24 03:54:47;;;;;;;8.73;6.20;;;9.40;99.90;;;;;;5026633;28;20029;-82
2022/09/24 03:57:13;;;;;;;9.03;5.77;;;9.40;99.90;;;;;;5026498;28;20143;-82
2022/09/24 03:59:40;;;;;;;8.97;6.30;;;9.40;99.90;;;;;;5027421;28;20033;-82
2022/09/24 04:02:06;;;;;;;9.93;6.50;;;9.40;99.90;;;;;;5026610;28;20022;-82
2022/09/24 04:04:32;;;;;;;8.57;5.53;;;9.50;99.90;;;;;;5026663;28;20032;-82
2022/09/24 04:06:58;;;;;;;7.83;6.00;;;9.50;99.90;;;;;;5026988;28;20029;-82
2022/09/24 04:09:23;;;;;;;6.87;5.53;;;9.50;99.90;;;;;;5026579;28;20099;-82
2022/09/24 04:11:51;;;;;;;7.67;5.47;;;9.50;99.90;;;;;;5026609;28;20061;-82
2022/09/24 04:14:17;;;;;;;8.23;6.00;;;9.50;99.90;;;;;;5027213;28;20040;-82
2022/09/24 04:16:43;;;;;;;7.70;5.47;;;9.60;99.90;;;;;;5026373;28;20033;-82
2022/09/24 04:19:08;;;;;;;8.23;6.00;;;9.60;99.90;;;;;;5026321;28;20103;-82
2022/09/24 04:21:34;;;;;;;8.23;5.70;;;9.60;99.90;;;;;;5026500;28;20083;-82
2022/09/24 04:23:59;;;;;;;6.73;4.97;;;9.60;99.90;;;;;;5026957;28;20034;-82
2022/09/24 04:26:25;;;;;;;11.25;5.82;;;9.60;99.90;;;;;;5026421;28;20033;-82
2022/09/24 04:28:50;;;;;;;7.25;5.55;;;9.70;99.90;;;;;;5026672;28;20115;-82
2022/09/24 04:31:16;;;;;;;8.73;5.73;;;9.70;99.90;;;;;;5027213;28;20111;-82
2022/09/24 04:33:41;;;;;;;9.60;6.60;;;9.70;99.90;;;;;;5026544;28;20063;-82
2022/09/24 04:36:07;;;;;;;10.03;5.80;;;9.70;99.90;;;;;;5026152;28;20025;-82
2022/09/24 04:38:32;;;;;;;7.17;5.40;;;9.70;99.90;;;;;;5026479;28;20026;-82
2022/09/24 04:41:08;;;;;;;6.90;5.40;;;9.80;99.90;;;;;;5026713;28;20034;-82
2022/09/24 04:43:35;;;;;;;6.67;5.10;;;9.80;99.90;;;;;;5026317;28;20044;-82
2022/09/24 04:46:01;;;;;;;7.10;5.30;;;9.80;99.90;;;;;;5026519;28;20029;-77
2022/09/24 04:48:27;;;;;;;6.10;5.03;;;9.80;99.90;;;;;;5028070;28;20482;-77
2022/09/24 04:50:52;;;;;;;8.03;5.17;;;9.80;99.90;;;;;;5028495;28;20025;-77
2022/09/24 04:53:18;;;;;;;6.47;5.37;;;9.90;99.90;;;;;;5028457;28;20525;-77
2022/09/24 04:55:44;;;;;;;7.43;5.82;;;9.90;99.90;;;;;;5027911;28;20541;-77
2022/09/24 04:58:09;;;;;;;11.75;6.32;;;9.80;99.90;;;;;;5028299;28;20033;-77
2022/09/24 05:00:35;;;;;;;7.53;5.43;;;9.90;99.90;;;;;;5028672;28;20033;-77
2022/09/24 05:03:04;;;;;;;9.43;5.70;;;9.80;99.90;;;;;;5028179;28;20037;-77
2022/09/24 05:05:31;;;;;;;8.87;5.17;;;9.80;99.90;;;;;;5031128;28;20025;-77
2022/09/24 05:07:58;;;;;;;7.53;5.97;;;9.80;99.90;;;;;;5031282;28;20028;-77
2022/09/24 05:10:27;;;;;;;8.53;6.27;;;9.80;99.90;;;;;;5031085;28;20103;-77
2022/09/24 05:12:53;;;;;;;10.33;7.03;;;9.80;99.90;;;;;;5031607;28;20104;-77
2022/09/24 05:15:19;;;;;;;11.17;6.13;;;9.80;99.90;;;;;;5031319;28;20049;-77
2022/09/24 05:17:45;;;;;;;6.93;5.78;;;9.80;99.90;;;;;;5030889;28;20134;-77
2022/09/24 05:20:11;;;;;;;7.87;5.70;;;9.80;99.90;;;;;;5031347;28;20025;-77
2022/09/24 05:22:41;;;;;;;8.90;5.83;;;9.80;99.90;;;;;;5031312;28;20029;-77
2022/09/24 05:25:06;;;;;;;8.27;6.35;;;9.80;99.90;;;;;;5031130;28;20033;-77
2022/09/24 05:27:32;;;;;;;7.43;5.88;;;9.80;99.90;;;;;;5031342;28;20029;-77
2022/09/24 05:29:59;;;;;;;8.82;5.72;;;9.90;99.90;;;;;;5031051;28;20183;-77
2022/09/24 05:32:25;;;;;;;7.80;5.47;;;9.90;99.90;;;;;;5031432;28;20029;-77
2022/09/24 05:34:51;;;;;;;8.70;5.45;;;10.00;99.90;;;;;;5031093;28;20485;-77
2022/09/24 05:37:17;;;;;;;7.18;5.45;;;10.00;99.90;;;;;;5030869;28;20036;-77
2022/09/24 05:39:42;;;;;;;8.25;5.97;;;10.00;99.90;;;;;;5030891;28;20036;-77
2022/09/24 05:42:15;;;;;;;10.95;6.45;;;10.00;99.90;;;;;;5030590;28;20026;-77
2022/09/24 05:44:42;;;;;;;11.10;5.97;;;10.10;99.90;;;;;;5031232;28;20033;-77
2022/09/24 05:47:08;;;;;;;8.70;5.78;;;10.10;99.90;;;;;;5030498;28;20033;-77
2022/09/24 05:49:34;;;;;;;8.02;5.50;;;10.10;99.90;;;;;;5030883;28;20039;-77
2022/09/24 05:52:00;;;;;;;9.70;5.80;;;10.20;99.90;;;;;;5030864;28;20025;-77
2022/09/24 05:54:26;;;;;;;11.82;6.25;;;10.20;99.90;;;;;;5030668;28;20033;-77
2022/09/24 05:56:51;;;;;;;8.60;5.22;;;10.30;99.90;;;;;;5030249;28;20063;-77
2022/09/24 05:59:17;;;;;;;9.48;5.63;;;10.30;99.90;;;;;;5030736;28;20060;-77
2022/09/24 06:01:43;;;;;;;8.85;5.50;;;10.40;99.90;;;;;;5030665;28;20327;-77
2022/09/24 06:04:10;;;;;;;11.90;6.65;;;10.40;99.90;;;;;;5030204;28;20025;-77
2022/09/24 06:06:36;;;;;;;10.13;5.75;;;10.50;99.90;;;;;;5030710;28;20028;-77
2022/09/24 06:09:02;;;;;;;7.10;5.57;;;10.50;99.90;;;;;;5030622;28;20026;-77
2022/09/24 06:11:33;;;;;;;6.72;5.80;;;10.60;99.90;;;;;;5030393;28;20126;-77
2022/09/24 06:14:01;;;;;;;7.78;5.32;;;10.60;99.90;;;;;;5030583;28;20116;-77
2022/09/24 06:16:27;;;;;;;6.65;5.65;;;10.70;99.90;;;;;;5029368;28;20254;-77
2022/09/24 06:18:52;;;;;;;7.38;5.38;;;10.80;99.90;;;;;;5029838;28;20030;-77
2022/09/24 06:21:18;;;;;;;8.55;6.18;;;10.80;99.90;;;;;;5028728;28;20040;-77
2022/09/24 06:23:46;;;;;;;9.60;6.00;;;10.90;99.90;;;;;;5029946;28;20040;-77
2022/09/24 06:26:13;;;;;;;7.22;5.07;;;11.00;99.90;;;;;;5030001;28;20513;-77
2022/09/24 06:28:39;;;;;;;8.25;6.00;;;11.10;99.90;;;;;;5030011;28;20026;-77
2022/09/24 06:31:06;;;;;;;8.32;5.60;;;11.20;99.90;;;;;;5029748;28;20122;-77
2022/09/24 06:33:31;;;;;;;8.93;5.95;;;11.20;99.90;;;;;;5029877;28;20029;-77
2022/09/24 06:36:01;;;;;;;8.52;5.53;;;11.30;99.90;;;;;;5030023;28;20043;-77
2022/09/24 06:38:28;;;;;;;7.70;5.07;;;11.40;99.90;;;;;;5029725;28;20037;-77
2022/09/24 06:41:01;;;;;;;10.75;5.65;;;11.40;99.90;;;;;;5029700;28;20021;-77
2022/09/24 06:43:26;;;;;;;8.30;5.25;;;11.50;99.90;;;;;;5030226;28;20159;-77
2022/09/24 06:45:56;;;;;;;9.80;6.20;;;11.60;99.90;;;;;;5029917;28;20431;-77
2022/09/24 06:48:23;;;;;;;11.43;6.43;;;11.60;99.90;;;;;;5030072;28;20331;-77
2022/09/24 06:50:48;;;;;;;11.95;5.63;;;11.70;99.90;;;;;;5029477;28;20029;-77
2022/09/24 06:53:14;;;;;;;9.60;5.50;;;11.70;99.90;;;;;;5029990;28;20047;-77
2022/09/24 06:55:41;;;;;;;8.48;5.20;;;11.70;99.90;;;;;;5029871;28;20029;-77
2022/09/24 06:58:09;;;;;;;7.90;5.28;;;11.80;99.90;;;;;;5029385;28;20053;-77
2022/09/24 07:00:36;;;;;;;6.47;5.13;;;11.80;99.90;;;;;;5029997;28;20401;-77
2022/09/24 07:03:02;;;;;;;10.50;5.38;;;11.90;99.90;;;;;;5029158;28;20068;-79
2022/09/24 07:05:28;;;;;;;8.30;5.85;;;11.90;99.90;;;;;;5027799;28;20493;-83
2022/09/24 07:07:53;;;;;;;7.82;5.63;;;12.00;99.90;;;;;;5027465;28;20026;-82
2022/09/24 07:10:19;;;;;;;15.73;5.97;;;12.10;99.90;;;;;;5027526;28;20532;-82
2022/09/24 07:12:45;;;;;;;8.70;5.50;;;12.10;99.90;;;;;;5027710;28;20033;-82
2022/09/24 07:15:11;;;;;;;8.10;5.55;;;12.20;99.90;;;;;;5027197;28;20390;-82
2022/09/24 07:17:37;;;;;;;8.45;5.10;;;12.20;99.90;;;;;;5027731;28;20102;-82
2022/09/24 07:20:03;;;;;;;12.88;5.45;;;12.20;99.90;;;;;;5027424;28;20044;-82
2022/09/24 07:22:29;;;;;;;8.65;6.25;;;12.20;99.90;;;;;;5027048;28;20037;-82
2022/09/24 07:24:55;;;;;;;8.23;6.05;;;12.30;99.90;;;;;;5027159;28;20052;-82
2022/09/24 07:27:21;;;;;;;9.48;5.85;;;12.30;99.90;;;;;;5027218;28;20036;-82
2022/09/24 07:29:47;;;;;;;10.00;6.55;;;12.30;99.90;;;;;;5026567;28;20089;-82
2022/09/24 07:32:15;;;;;;;8.27;6.10;;;12.30;99.90;;;;;;5028090;28;20033;-82
2022/09/24 07:34:41;;;;;;;9.95;6.47;;;12.30;99.90;;;;;;5027081;28;20034;-81
2022/09/24 07:37:06;;;;;;;14.10;6.30;;;12.40;99.90;;;;;;5027528;28;20056;-82
2022/09/24 07:39:32;;;;;;;9.45;6.38;;;12.40;99.90;;;;;;5027101;28;20021;-82
2022/09/24 07:42:00;;;;;;;9.80;5.70;;;12.50;99.90;;;;;;5027286;28;20032;-82
2022/09/24 07:44:25;;;;;;;9.55;5.00;;;12.60;99.90;;;;;;5027178;28;20426;-81
2022/09/24 07:46:51;;;;;;;12.25;4.78;;;12.60;99.90;;;;;;5027920;28;20568;-82
2022/09/24 07:49:17;;;;;;;9.18;4.78;;;12.70;99.90;;;;;;5026840;28;20175;-82
2022/09/24 07:51:43;;;;;;;5.82;4.53;;;12.70;99.90;;;;;;5026698;28;20106;-82
2022/09/24 07:54:09;;;;;;;7.85;4.63;;;12.80;99.90;;;;;;5026528;28;20581;-82
2022/09/24 07:56:35;;;;;;;10.35;4.40;;;12.80;99.90;;;;;;5026242;28;20516;-82
2022/09/24 07:59:00;;;;;;;8.90;4.65;;;12.90;99.90;;;;;;5027034;28;20037;-82
2022/09/24 08:01:26;;;;;;;6.30;4.30;;;12.90;99.90;;;;;;5026223;28;20041;-82
2022/09/24 08:03:52;;;;;;;6.32;4.28;;;13.00;99.90;;;;;;5026567;28;20107;-82
2022/09/24 08:06:21;;;;;;;8.15;4.82;;;13.10;99.90;;;;;;5027317;28;20033;-82
2022/09/24 08:08:55;;;;;;;8.63;5.50;;;13.20;99.90;;;;;;5026539;28;20466;-82
2022/09/24 08:11:20;;;;;;;5.95;4.57;;;13.30;99.90;;;;;;5026487;28;20374;-82
2022/09/24 08:13:46;;;;;;;7.45;4.30;;;13.40;99.90;;;;;;5026327;28;20038;-82
2022/09/24 08:16:12;;;;;;;4.95;3.97;;;13.50;99.90;;;;;;5026516;28;20037;-82
2022/09/24 08:18:38;;;;;;;5.45;4.10;;;13.50;99.90;;;;;;5026104;28;20493;-82
2022/09/24 08:21:10;;;;;;;5.93;3.85;;;13.60;99.90;;;;;;5026914;28;20080;-81
2022/09/24 08:23:37;;;;;;;6.47;4.30;;;13.60;99.90;;;;;;5026661;28;20490;-82
2022/09/24 08:26:03;;;;;;;7.50;4.57;;;13.60;99.90;;;;;;5026684;28;20061;-82
2022/09/24 08:28:28;;;;;;;6.97;4.05;;;13.60;99.90;;;;;;5026197;28;20021;-81
2022/09/24 08:31:03;;;;;;;7.03;4.10;;;13.70;99.90;;;;;;5026463;28;20033;-82
2022/09/24 08:33:31;;;;;;;7.05;4.13;;;13.70;99.90;;;;;;5026742;28;20045;-82
2022/09/24 08:35:58;;;;;;;7.18;4.38;;;13.70;99.90;;;;;;5026649;28;20033;-81
2022/09/24 08:38:24;;;;;;;8.50;5.18;;;13.80;99.90;;;;;;5026336;28;20474;-81
2022/09/24 08:41:11;;;;;;;7.07;4.00;;;13.80;99.90;;;;;;5030019;28;20037;-81
2022/09/24 08:43:50;;;;;;;8.90;4.55;;;13.80;99.90;;;;;;5031308;28;20061;-77
2022/09/24 08:49:26;;;;;;;6.07;4.25;;;14.00;99.90;;;;;;5032890;28;20032;-77
2022/09/24 08:52:15;;;;;;;5.22;3.92;;;14.10;99.90;;;;;;5032616;28;20048;-77
2022/09/24 08:54:42;;;;;;;6.03;3.42;;;14.20;99.90;;;;;;5032861;28;20040;-77
2022/09/24 08:57:15;;;;;;;7.28;4.03;;;14.30;99.90;;;;;;5032488;28;20136;-77
2022/09/24 08:59:45;;;;;;;4.35;3.45;;;14.40;99.90;;;;;;5033195;28;20104;-77
2022/09/24 09:03:06;;;;;;;7.30;3.60;;;14.50;99.90;;;;;;5032559;28;20061;-77
2022/09/24 09:05:46;;;;;;;4.50;3.30;;;14.50;99.90;;;;;;5029793;28;20067;-78
2022/09/24 09:08:34;;;;;;;5.07;3.35;;;14.60;99.90;;;;;;5030623;28;20037;-77
2022/09/24 09:11:03;;;;;;;6.65;3.67;;;14.70;99.90;;;;;;5031239;28;20032;-77
2022/09/24 09:13:40;;;;;;;8.73;3.50;;;14.80;99.90;;;;;;5031454;28;20474;-78
2022/09/24 09:16:28;;;;;;;8.07;3.70;;;14.80;99.90;;;;;;5031218;28;20458;-76
2022/09/24 09:19:03;;;;;;;5.05;3.30;;;14.80;99.90;;;;;;5031291;28;20025;-77
2022/09/24 09:21:33;;;;;;;;;;;14.80;99.90;;;;;;5032063;28;20036;-77
2022/09/24 09:24:01;;;;;;;6.35;3.35;;;14.80;99.90;;;;;;5031001;28;19912;-77
2022/09/24 09:26:26;;;;;;;7.05;3.25;;;15.00;99.90;;;;;;5031299;28;20054;-77
2022/09/24 09:28:58;;;;;;;6.63;3.50;;;15.00;99.90;;;;;;5029163;28;20104;-77
2022/09/24 09:31:54;;;;;;;6.38;3.55;;;15.10;99.90;;;;;;5031197;28;20056;-77
2022/09/24 09:34:46;;;;;;;7.47;3.10;;;15.10;99.90;;;;;;5031198;28;20410;-76
2022/09/24 09:37:11;;;;;;;5.03;3.00;;;15.10;99.90;;;;;;5031226;28;20125;-76
2022/09/24 09:40:04;;;;;;;3.60;3.15;;;15.20;99.90;;;;;;5030524;28;20136;-76
2022/09/24 09:42:34;;;;;;;4.88;2.90;;;15.30;99.90;;;;;;5029346;28;20036;-76
2022/09/24 09:45:13;;;;;;;4.00;2.65;;;15.30;99.90;;;;;;5029759;28;20032;-77
2022/09/24 09:48:03;;;;;;;6.43;3.53;;;15.40;99.90;;;;;;5029522;28;20465;-76
2022/09/24 09:50:43;;;;;;;4.22;2.83;;;15.30;99.90;;;;;;5029171;28;20373;-77
2022/09/24 09:53:26;;;;;;;4.78;3.58;;;15.30;99.90;;;;;;5029163;28;20040;-77
2022/09/24 09:56:01;;;;;;;4.72;3.40;;;15.30;99.90;;;;;;5029157;28;20349;-77
2022/09/24 09:58:51;;;;;;;7.05;3.72;;;15.20;99.90;;;;;;5028992;28;20486;-76
2022/09/24 10:01:17;;;;;;;3.92;3.35;;;15.10;99.90;;;;;;5029220;28;20035;-76
2022/09/24 10:03:43;;;;;;;4.90;3.60;;;15.10;99.90;;;;;;5027325;28;20029;-76
2022/09/24 10:06:11;;;;;;;4.47;3.55;;;15.10;99.90;;;;;;5028915;28;20105;-77
2022/09/24 10:08:36;;;;;;;8.00;4.00;;;15.00;99.90;;;;;;5028752;28;20402;-77
2022/09/24 10:11:03;;;;;;;5.55;3.58;;;14.90;99.90;;;;;;5028716;28;20029;-77
2022/09/24 10:13:32;;;;;;;7.13;4.10;;;14.80;99.90;;;;;;5029280;28;20034;-77
2022/09/24 10:16:03;;;;;;;4.93;3.88;;;14.70;99.90;;;;;;5028684;28;20394;-77
2022/09/24 10:18:42;;;;;;;6.85;4.38;;;14.70;99.90;;;;;;5029141;28;20033;-76
2022/09/24 10:21:23;;;;;;;6.13;4.43;;;14.60;99.90;;;;;;5028675;28;20037;-77
2022/09/24 10:23:50;;;;;;;6.47;4.55;;;14.60;99.90;;;;;;5027903;28;20045;-76
2022/09/24 10:26:16;;;;;;;7.50;4.07;;;14.60;99.90;;;;;;5028309;28;20471;-76
2022/09/24 10:31:36;;;;;;;7.80;4.57;;;14.50;99.90;;;;;;5028640;28;20394;-76
2022/09/24 10:34:04;;;;;;;5.55;4.43;;;14.50;99.90;;;;;;5027830;28;20072;-76
2022/09/24 10:36:31;;;;;;;6.53;4.45;;;14.50;99.90;;;;;;5028204;28;20121;-76
2022/09/24 10:39:07;;;;;;;5.82;4.90;;;14.50;99.90;;;;;;5028045;28;20033;-76
2022/09/24 10:41:34;;;;;;;5.80;4.60;;;14.50;99.90;;;;;;5028425;28;20501;-76
2022/09/24 10:44:04;;;;;;;6.30;5.13;;;14.60;99.90;;;;;;5028104;28;20068;-76
2022/09/24 10:46:38;;;;;;;7.10;5.05;;;14.70;99.90;;;;;;5027694;28;20112;-76
2022/09/24 10:49:19;;;;;;;10.75;4.72;;;14.70;99.90;;;;;;5027761;28;20104;-77
2022/09/24 10:52:13;;;;;;;8.65;5.20;;;14.80;99.90;;;;;;5028015;28;20025;-77
2022/09/24 10:55:01;;;;;;;8.00;5.68;;;14.80;99.90;;;;;;5027741;28;20036;-77
2022/09/24 10:57:41;;;;;;;8.52;5.90;;;14.80;99.90;;;;;;5027872;28;20102;-76
2022/09/24 11:00:14;;;;;;;7.10;5.50;;;14.90;99.90;;;;;;5028284;28;20060;-76
2022/09/24 11:02:46;;;;;;;7.43;5.55;;;14.80;99.90;;;;;;5027303;28;20033;-77
2022/09/24 11:05:18;;;;;;;9.43;5.20;;;14.90;99.90;;;;;;5027420;28;20458;-77
2022/09/24 11:07:53;;;;;;;6.13;5.32;;;14.90;99.90;;;;;;5027415;28;20018;-76
2022/09/24 11:10:53;;;;;;;6.20;5.53;;;14.90;99.90;;;;;;5027522;28;20017;-77
2022/09/24 11:13:28;;;;;;;8.75;5.38;;;14.80;99.90;;;;;;5027761;28;20033;-77
2022/09/24 11:16:15;;;;;;;7.65;5.55;;;14.80;99.90;;;;;;5027285;28;20032;-77
2022/09/24 11:18:52;;;;;;;7.32;5.97;;;14.80;99.90;;;;;;5027557;28;20032;-77
2022/09/24 11:21:45;;;;;;;6.57;5.60;;;14.70;99.90;;;;;;5025970;28;20044;-76
2022/09/24 11:24:38;;;;;;;8.82;5.47;;;14.80;99.90;;;;;;5027143;28;20037;-77
2022/09/24 11:27:15;;;;;;;6.28;5.38;;;14.70;99.90;;;;;;5027598;28;20373;-76
2022/09/24 11:29:40;;;;;;;10.57;6.60;;;14.70;99.90;;;;;;5025845;28;20429;-76
2022/09/24 11:32:14;;;;;;;7.40;6.15;;;14.60;99.90;;;;;;5027883;28;20029;-77
2022/09/24 11:34:54;;;;;;;9.73;6.30;;;14.70;99.90;;;;;;5026981;28;20064;-77
2022/09/24 11:37:27;;;;;;;7.72;6.35;;;14.70;99.90;;;;;;5027736;28;20146;-78
2022/09/24 11:40:16;;;;;;;7.78;6.05;;;14.70;99.90;;;;;;5027841;28;20132;-78
2022/09/24 11:42:50;;;;;;;8.20;6.15;;;14.70;99.90;;;;;;5027999;28;20022;-78
2022/09/24 11:45:33;;;;;;;7.25;5.80;;;14.60;99.90;;;;;;5028024;28;20029;-78
2022/09/24 11:48:23;;;;;;;8.00;6.90;;;14.70;99.90;;;;;;5027518;28;20025;-78
2022/09/24 11:51:07;;;;;;;8.02;6.45;;;14.70;99.90;;;;;;5027781;28;20026;-78
2022/09/24 11:53:42;;;;;;;8.13;5.93;;;14.70;99.90;;;;;;5027473;28;20493;-78
2022/09/24 11:56:19;;;;;;;7.38;5.55;;;14.70;99.90;;;;;;5027091;28;20141;-78
2022/09/24 11:59:19;;;;;;;8.43;6.18;;;14.70;99.90;;;;;;5027498;28;20053;-78
2022/09/24 12:01:57;;;;;;;7.53;6.25;;;14.70;99.90;;;;;;5026884;28;20120;-78
2022/09/24 12:04:58;;;;;;;7.82;6.50;;;14.70;99.90;;;;;;5027869;28;20029;-78
2022/09/24 12:07:32;;;;;;;7.88;5.53;;;14.70;99.90;;;;;;5027472;28;20026;-78
2022/09/24 12:10:19;;;;;;;8.27;5.82;;;14.70;99.90;;;;;;5027322;28;20025;-78
2022/09/24 12:12:49;;;;;;;6.38;5.78;;;14.60;99.90;;;;;;5027904;28;20033;-78
2022/09/24 12:15:20;;;;;;;8.85;5.53;;;14.70;99.90;;;;;;5031806;28;20180;-78
2022/09/24 12:18:23;;;;;;;9.98;6.18;;;14.70;99.90;;;;;;5031064;28;20490;-78
2022/09/24 12:20:53;;;;;;;9.18;6.47;;;14.80;99.90;;;;;;5031580;28;20041;-78
2022/09/24 12:23:26;;;;;;;9.23;5.88;;;14.80;99.90;;;;;;5031577;28;20497;-78
2022/09/24 12:25:54;;;;;;;6.40;5.50;;;14.80;99.90;;;;;;5031697;28;20048;-78
2022/09/24 12:34:41;;;;;;;10.70;6.35;;;14.90;99.90;;;;;;5031433;28;19916;-78
2022/09/24 12:37:11;;;;;;;7.20;5.82;;;14.90;99.90;;;;;;5030627;28;20111;-78
2022/09/24 12:40:00;;;;;;;9.73;6.70;;;14.90;99.90;;;;;;5030909;28;20211;-78
2022/09/24 12:42:33;;;;;;;13.77;6.05;;;15.00;99.90;;;;;;5031087;28;20099;-78
2022/09/24 12:45:00;;;;;;;8.10;5.60;;;15.00;99.90;;;;;;5031209;28;20022;-78
2022/09/24 12:47:32;;;;;;;5.90;5.30;;;15.00;99.90;;;;;;5031063;28;20084;-78
2022/09/24 12:50:00;;;;;;;7.90;5.43;;;15.00;99.90;;;;;;5030581;28;20075;-78
2022/09/24 12:52:39;;;;;;;7.97;5.97;;;15.00;99.90;;;;;;5031158;28;20028;-78
2022/09/24 12:55:19;;;;;;;9.20;5.93;;;15.10;99.90;;;;;;5030492;28;20041;-78
2022/09/24 12:57:57;;;;;;;7.15;5.55;;;15.10;99.90;;;;;;5030568;28;20053;-78
2022/09/24 13:00:40;;;;;;;9.05;5.53;;;15.20;99.90;;;;;;5030975;28;20040;-78
2022/09/24 13:03:33;;;;;;;7.60;5.25;;;15.30;99.90;;;;;;5030448;28;20033;-78
2022/09/24 13:05:59;;;;;;;9.30;5.50;;;15.40;99.90;;;;;;5030356;28;20481;-78
2022/09/24 13:08:35;;;;;;;8.40;6.10;;;15.50;99.90;;;;;;5030283;28;20060;-77
2022/09/24 13:11:04;;;;;;;7.75;5.40;;;15.70;99.90;;;;;;5031027;28;20515;-78
2022/09/24 13:13:39;;;;;;;8.75;6.15;;;15.80;99.90;;;;;;5030581;28;20052;-78
2022/09/24 13:16:16;;;;;;;8.65;5.82;;;15.80;99.90;;;;;;5030697;28;20083;-78
2022/09/24 13:18:49;;;;;;;6.78;4.80;;;15.90;99.90;;;;;;5030667;28;20394;-78
2022/09/24 13:21:23;;;;;;;7.15;5.70;;;15.90;99.90;;;;;;5030717;28;20029;-78
2022/09/24 13:23:50;;;;;;;7.75;5.10;;;15.90;99.90;;;;;;5030625;28;20174;-77
2022/09/24 13:26:32;;;;;;;6.97;5.15;;;16.00;99.90;;;;;;5030262;28;20078;-77
2022/09/24 13:29:01;;;;;;;7.22;5.22;;;16.00;99.90;;;;;;5030741;28;20033;-77